sensor_id;sensor_type;location;lat;lon;timestamp;P1;durP1;ratioP1;P2;durP2;ratioP2
12715;SDS011;6422;49.938;9.124;2023-11-21T00:01:03;7.77;;;1.17;;
12715;SDS011;6422;49.938;9.124;2023-11-21T00:03:29;1.43;;;0.77;;
12715;SDS011;6422;49.938;9.124;2023-11-21T00:05:54;1.53;;;1.27;;
12715;SDS011;6422;49.938;9.124;2023-11-21T00:08:20;3.60;;;0.77;;
12715;SDS011;6422;49.938;9.124;2023-11-21T00:10:45;1.30;;;0.90;;
12715;SDS011;6422;49.938;9.124;2023-11-21T00:13:10;1.10;;;0.83;;
12715;SDS011;6422;49.938;9.124;2023-11-21T00:15:37;6.53;;;0.80;;
12715;SDS011;6422;49.938;9.124;2023-11-21T00:18:02;2.67;;;0.93;;
12715;SDS011;6422;49.938;9.124;2023-11-21T00:20:27;1.40;;;0.88;;
12715;SDS011;6422;49.938;9.124;2023-11-21T00:22:53;4.13;;;1.15;;
12715;SDS011;6422;49.938;9.124;2023-11-21T00:25:18;2.30;;;0.88;;
12715;SDS011;6422;49.938;9.124;2023-11-21T00:27:43;2.10;;;0.90;;
12715;SDS011;6422;49.938;9.124;2023-11-21T00:30:08;1.60;;;0.93;;
12715;SDS011;6422;49.938;9.124;2023-11-21T00:32:35;2.10;;;0.90;;
12715;SDS011;6422;49.938;9.124;2023-11-21T00:35:00;1.27;;;0.60;;
12715;SDS011;6422;49.938;9.124;2023-11-21T00:37:25;1.50;;;0.90;;
12715;SDS011;6422;49.938;9.124;2023-11-21T00:39:51;0.77;;;0.60;;
12715;SDS011;6422;49.938;9.124;2023-11-21T00:42:16;0.90;;;0.60;;
12715;SDS011;6422;49.938;9.124;2023-11-21T00:44:41;0.98;;;0.88;;
12715;SDS011;6422;49.938;9.124;2023-11-21T00:47:06;0.83;;;0.57;;
12715;SDS011;6422;49.938;9.124;2023-11-21T00:49:33;1.00;;;0.80;;
12715;SDS011;6422;49.938;9.124;2023-11-21T00:51:58;2.45;;;1.58;;
12715;SDS011;6422;49.938;9.124;2023-11-21T00:54:23;4.72;;;1.55;;
12715;SDS011;6422;49.938;9.124;2023-11-21T00:56:48;1.37;;;0.93;;
12715;SDS011;6422;49.938;9.124;2023-11-21T00:59:13;1.47;;;0.93;;
12715;SDS011;6422;49.938;9.124;2023-11-21T01:01:38;1.05;;;0.80;;
12715;SDS011;6422;49.938;9.124;2023-11-21T01:04:04;1.30;;;0.90;;
12715;SDS011;6422;49.938;9.124;2023-11-21T01:06:29;2.07;;;1.07;;
12715;SDS011;6422;49.938;9.124;2023-11-21T01:08:54;5.33;;;0.80;;
12715;SDS011;6422;49.938;9.124;2023-11-21T01:11:20;1.10;;;1.00;;
12715;SDS011;6422;49.938;9.124;2023-11-21T01:13:45;1.27;;;0.70;;
12715;SDS011;6422;49.938;9.124;2023-11-21T01:16:10;1.90;;;0.90;;
12715;SDS011;6422;49.938;9.124;2023-11-21T01:18:36;1.13;;;0.97;;
12715;SDS011;6422;49.938;9.124;2023-11-21T01:21:02;0.90;;;0.60;;
12715;SDS011;6422;49.938;9.124;2023-11-21T01:23:27;1.33;;;1.10;;
12715;SDS011;6422;49.938;9.124;2023-11-21T01:25:52;3.77;;;1.20;;
12715;SDS011;6422;49.938;9.124;2023-11-21T01:28:17;0.80;;;0.60;;
12715;SDS011;6422;49.938;9.124;2023-11-21T01:30:43;1.63;;;0.65;;
12715;SDS011;6422;49.938;9.124;2023-11-21T01:33:09;1.00;;;0.70;;
12715;SDS011;6422;49.938;9.124;2023-11-21T01:35:34;1.10;;;0.60;;
12715;SDS011;6422;49.938;9.124;2023-11-21T01:38:00;1.63;;;1.23;;
12715;SDS011;6422;49.938;9.124;2023-11-21T01:40:25;3.88;;;0.82;;
12715;SDS011;6422;49.938;9.124;2023-11-21T01:42:50;2.13;;;0.90;;
12715;SDS011;6422;49.938;9.124;2023-11-21T01:45:15;4.20;;;1.33;;
12715;SDS011;6422;49.938;9.124;2023-11-21T01:47:41;3.80;;;1.40;;
12715;SDS011;6422;49.938;9.124;2023-11-21T01:50:06;5.20;;;0.90;;
12715;SDS011;6422;49.938;9.124;2023-11-21T01:52:32;1.10;;;0.80;;
12715;SDS011;6422;49.938;9.124;2023-11-21T01:54:59;4.77;;;1.47;;
12715;SDS011;6422;49.938;9.124;2023-11-21T01:57:25;0.87;;;0.63;;
12715;SDS011;6422;49.938;9.124;2023-11-21T01:59:50;1.03;;;0.90;;
12715;SDS011;6422;49.938;9.124;2023-11-21T02:02:17;0.93;;;0.70;;
12715;SDS011;6422;49.938;9.124;2023-11-21T02:04:42;1.30;;;0.53;;
12715;SDS011;6422;49.938;9.124;2023-11-21T02:07:07;1.17;;;0.80;;
12715;SDS011;6422;49.938;9.124;2023-11-21T02:09:33;3.47;;;0.90;;
12715;SDS011;6422;49.938;9.124;2023-11-21T02:11:59;1.27;;;0.97;;
12715;SDS011;6422;49.938;9.124;2023-11-21T02:14:25;0.93;;;0.60;;
12715;SDS011;6422;49.938;9.124;2023-11-21T02:16:51;5.80;;;1.33;;
12715;SDS011;6422;49.938;9.124;2023-11-21T02:19:20;4.97;;;0.70;;
12715;SDS011;6422;49.938;9.124;2023-11-21T02:21:47;1.67;;;1.30;;
12715;SDS011;6422;49.938;9.124;2023-11-21T02:24:14;2.20;;;1.13;;
12715;SDS011;6422;49.938;9.124;2023-11-21T02:26:40;0.90;;;0.60;;
12715;SDS011;6422;49.938;9.124;2023-11-21T02:29:06;0.80;;;0.60;;
12715;SDS011;6422;49.938;9.124;2023-11-21T02:31:31;1.27;;;0.73;;
12715;SDS011;6422;49.938;9.124;2023-11-21T02:33:57;1.57;;;0.67;;
12715;SDS011;6422;49.938;9.124;2023-11-21T02:36:23;1.50;;;1.00;;
12715;SDS011;6422;49.938;9.124;2023-11-21T02:38:48;0.70;;;0.50;;
12715;SDS011;6422;49.938;9.124;2023-11-21T02:41:13;4.00;;;0.73;;
12715;SDS011;6422;49.938;9.124;2023-11-21T02:43:38;1.38;;;0.60;;
12715;SDS011;6422;49.938;9.124;2023-11-21T02:46:03;0.93;;;0.80;;
12715;SDS011;6422;49.938;9.124;2023-11-21T02:48:29;3.60;;;0.97;;
12715;SDS011;6422;49.938;9.124;2023-11-21T02:50:55;0.70;;;0.50;;
12715;SDS011;6422;49.938;9.124;2023-11-21T02:53:20;1.77;;;0.90;;
12715;SDS011;6422;49.938;9.124;2023-11-21T02:55:46;4.10;;;0.80;;
12715;SDS011;6422;49.938;9.124;2023-11-21T02:58:11;3.20;;;1.67;;
12715;SDS011;6422;49.938;9.124;2023-11-21T03:00:36;0.70;;;0.57;;
12715;SDS011;6422;49.938;9.124;2023-11-21T03:03:01;1.60;;;0.70;;
12715;SDS011;6422;49.938;9.124;2023-11-21T03:05:26;0.80;;;0.60;;
12715;SDS011;6422;49.938;9.124;2023-11-21T03:07:51;4.47;;;1.37;;
12715;SDS011;6422;49.938;9.124;2023-11-21T03:10:17;1.43;;;1.23;;
12715;SDS011;6422;49.938;9.124;2023-11-21T03:12:42;0.93;;;0.73;;
12715;SDS011;6422;49.938;9.124;2023-11-21T03:15:07;1.05;;;0.55;;
12715;SDS011;6422;49.938;9.124;2023-11-21T03:17:33;0.90;;;0.70;;
12715;SDS011;6422;49.938;9.124;2023-11-21T03:19:59;1.25;;;0.70;;
12715;SDS011;6422;49.938;9.124;2023-11-21T03:22:24;1.67;;;0.87;;
12715;SDS011;6422;49.938;9.124;2023-11-21T03:24:49;3.03;;;1.00;;
12715;SDS011;6422;49.938;9.124;2023-11-21T03:27:15;6.03;;;0.95;;
12715;SDS011;6422;49.938;9.124;2023-11-21T03:29:40;1.00;;;0.80;;
12715;SDS011;6422;49.938;9.124;2023-11-21T03:32:05;1.27;;;0.70;;
12715;SDS011;6422;49.938;9.124;2023-11-21T03:34:32;0.80;;;0.53;;
12715;SDS011;6422;49.938;9.124;2023-11-21T03:36:57;0.70;;;0.50;;
12715;SDS011;6422;49.938;9.124;2023-11-21T03:39:23;0.90;;;0.70;;
12715;SDS011;6422;49.938;9.124;2023-11-21T03:41:48;1.63;;;0.70;;
12715;SDS011;6422;49.938;9.124;2023-11-21T03:44:14;5.23;;;1.27;;
12715;SDS011;6422;49.938;9.124;2023-11-21T03:46:39;0.90;;;0.60;;
12715;SDS011;6422;49.938;9.124;2023-11-21T03:49:04;1.00;;;0.70;;
12715;SDS011;6422;49.938;9.124;2023-11-21T03:51:29;1.10;;;0.90;;
12715;SDS011;6422;49.938;9.124;2023-11-21T03:53:54;1.90;;;0.70;;
12715;SDS011;6422;49.938;9.124;2023-11-21T03:56:19;0.70;;;0.50;;
12715;SDS011;6422;49.938;9.124;2023-11-21T03:58:47;2.50;;;1.03;;
12715;SDS011;6422;49.938;9.124;2023-11-21T04:01:12;0.90;;;0.70;;
12715;SDS011;6422;49.938;9.124;2023-11-21T04:03:43;0.80;;;0.60;;
12715;SDS011;6422;49.938;9.124;2023-11-21T04:06:08;1.08;;;0.73;;
12715;SDS011;6422;49.938;9.124;2023-11-21T04:08:33;1.50;;;0.90;;
12715;SDS011;6422;49.938;9.124;2023-11-21T04:10:59;0.70;;;0.47;;
12715;SDS011;6422;49.938;9.124;2023-11-21T04:13:24;3.58;;;1.17;;
12715;SDS011;6422;49.938;9.124;2023-11-21T04:15:49;14.63;;;1.33;;
12715;SDS011;6422;49.938;9.124;2023-11-21T04:18:14;4.17;;;1.13;;
12715;SDS011;6422;49.938;9.124;2023-11-21T04:20:39;1.10;;;0.80;;
12715;SDS011;6422;49.938;9.124;2023-11-21T04:23:04;8.60;;;1.30;;
12715;SDS011;6422;49.938;9.124;2023-11-21T04:25:29;0.80;;;0.50;;
12715;SDS011;6422;49.938;9.124;2023-11-21T04:27:55;0.90;;;0.60;;
12715;SDS011;6422;49.938;9.124;2023-11-21T04:30:20;1.50;;;0.65;;
12715;SDS011;6422;49.938;9.124;2023-11-21T04:32:45;0.70;;;0.50;;
12715;SDS011;6422;49.938;9.124;2023-11-21T04:35:11;1.57;;;0.80;;
12715;SDS011;6422;49.938;9.124;2023-11-21T04:37:36;0.80;;;0.50;;
12715;SDS011;6422;49.938;9.124;2023-11-21T04:40:02;2.10;;;0.87;;
12715;SDS011;6422;49.938;9.124;2023-11-21T04:42:31;4.20;;;0.70;;
12715;SDS011;6422;49.938;9.124;2023-11-21T04:44:56;1.50;;;1.13;;
12715;SDS011;6422;49.938;9.124;2023-11-21T04:47:21;0.90;;;0.60;;
12715;SDS011;6422;49.938;9.124;2023-11-21T04:49:47;0.73;;;0.53;;
12715;SDS011;6422;49.938;9.124;2023-11-21T04:52:12;2.40;;;0.97;;
12715;SDS011;6422;49.938;9.124;2023-11-21T04:54:37;1.47;;;0.80;;
12715;SDS011;6422;49.938;9.124;2023-11-21T04:57:04;1.17;;;0.67;;
12715;SDS011;6422;49.938;9.124;2023-11-21T04:59:32;0.80;;;0.60;;
12715;SDS011;6422;49.938;9.124;2023-11-21T05:01:57;3.70;;;0.70;;
12715;SDS011;6422;49.938;9.124;2023-11-21T05:04:22;3.10;;;1.07;;
12715;SDS011;6422;49.938;9.124;2023-11-21T05:06:47;1.60;;;1.00;;
12715;SDS011;6422;49.938;9.124;2023-11-21T05:09:13;1.10;;;0.60;;
12715;SDS011;6422;49.938;9.124;2023-11-21T05:11:38;1.20;;;0.80;;
12715;SDS011;6422;49.938;9.124;2023-11-21T05:14:04;10.03;;;0.80;;
12715;SDS011;6422;49.938;9.124;2023-11-21T05:16:30;0.90;;;0.70;;
12715;SDS011;6422;49.938;9.124;2023-11-21T05:18:55;3.00;;;0.60;;
12715;SDS011;6422;49.938;9.124;2023-11-21T05:21:25;1.00;;;0.80;;
12715;SDS011;6422;49.938;9.124;2023-11-21T05:23:51;1.67;;;1.20;;
12715;SDS011;6422;49.938;9.124;2023-11-21T05:26:16;7.90;;;1.57;;
12715;SDS011;6422;49.938;9.124;2023-11-21T05:28:41;2.53;;;1.30;;
12715;SDS011;6422;49.938;9.124;2023-11-21T05:31:06;10.00;;;1.40;;
12715;SDS011;6422;49.938;9.124;2023-11-21T05:33:31;3.33;;;1.33;;
12715;SDS011;6422;49.938;9.124;2023-11-21T05:35:58;0.93;;;0.73;;
12715;SDS011;6422;49.938;9.124;2023-11-21T05:38:23;1.20;;;0.90;;
12715;SDS011;6422;49.938;9.124;2023-11-21T05:40:48;1.17;;;0.75;;
12715;SDS011;6422;49.938;9.124;2023-11-21T05:43:13;0.93;;;0.70;;
12715;SDS011;6422;49.938;9.124;2023-11-21T05:45:40;0.80;;;0.60;;
12715;SDS011;6422;49.938;9.124;2023-11-21T05:48:05;1.77;;;0.93;;
12715;SDS011;6422;49.938;9.124;2023-11-21T05:50:31;0.80;;;0.60;;
12715;SDS011;6422;49.938;9.124;2023-11-21T05:52:57;0.80;;;0.70;;
12715;SDS011;6422;49.938;9.124;2023-11-21T05:55:24;1.00;;;0.90;;
12715;SDS011;6422;49.938;9.124;2023-11-21T05:57:50;1.37;;;0.90;;
12715;SDS011;6422;49.938;9.124;2023-11-21T06:00:15;1.97;;;0.90;;
12715;SDS011;6422;49.938;9.124;2023-11-21T06:02:46;1.67;;;1.20;;
12715;SDS011;6422;49.938;9.124;2023-11-21T06:05:11;1.00;;;0.70;;
12715;SDS011;6422;49.938;9.124;2023-11-21T06:07:37;1.30;;;0.80;;
12715;SDS011;6422;49.938;9.124;2023-11-21T06:10:02;1.70;;;0.73;;
12715;SDS011;6422;49.938;9.124;2023-11-21T06:12:30;1.30;;;0.97;;
12715;SDS011;6422;49.938;9.124;2023-11-21T06:14:56;3.43;;;0.80;;
12715;SDS011;6422;49.938;9.124;2023-11-21T06:17:21;4.03;;;1.23;;
12715;SDS011;6422;49.938;9.124;2023-11-21T06:19:46;1.53;;;1.10;;
12715;SDS011;6422;49.938;9.124;2023-11-21T06:22:12;19.47;;;1.90;;
12715;SDS011;6422;49.938;9.124;2023-11-21T06:24:37;1.10;;;0.73;;
12715;SDS011;6422;49.938;9.124;2023-11-21T06:27:05;2.87;;;1.30;;
12715;SDS011;6422;49.938;9.124;2023-11-21T06:29:31;3.60;;;1.37;;
12715;SDS011;6422;49.938;9.124;2023-11-21T06:31:56;1.63;;;1.00;;
12715;SDS011;6422;49.938;9.124;2023-11-21T06:34:22;0.90;;;0.80;;
12715;SDS011;6422;49.938;9.124;2023-11-21T06:36:47;2.50;;;0.70;;
12715;SDS011;6422;49.938;9.124;2023-11-21T06:39:12;4.00;;;1.45;;
12715;SDS011;6422;49.938;9.124;2023-11-21T06:41:40;1.70;;;1.20;;
12715;SDS011;6422;49.938;9.124;2023-11-21T06:44:05;2.90;;;1.27;;
12715;SDS011;6422;49.938;9.124;2023-11-21T06:46:30;1.60;;;0.90;;
12715;SDS011;6422;49.938;9.124;2023-11-21T06:48:55;1.77;;;1.50;;
12715;SDS011;6422;49.938;9.124;2023-11-21T06:51:20;1.10;;;0.80;;
12715;SDS011;6422;49.938;9.124;2023-11-21T06:53:46;2.23;;;1.17;;
12715;SDS011;6422;49.938;9.124;2023-11-21T06:56:17;4.90;;;1.67;;
12715;SDS011;6422;49.938;9.124;2023-11-21T06:58:43;1.77;;;1.23;;
12715;SDS011;6422;49.938;9.124;2023-11-21T07:01:10;7.23;;;1.87;;
12715;SDS011;6422;49.938;9.124;2023-11-21T07:03:35;1.05;;;0.88;;
12715;SDS011;6422;49.938;9.124;2023-11-21T07:06:02;12.80;;;1.13;;
12715;SDS011;6422;49.938;9.124;2023-11-21T07:08:27;0.93;;;0.80;;
12715;SDS011;6422;49.938;9.124;2023-11-21T07:10:52;1.05;;;0.90;;
12715;SDS011;6422;49.938;9.124;2023-11-21T07:13:17;1.30;;;1.10;;
12715;SDS011;6422;49.938;9.124;2023-11-21T07:15:43;1.10;;;0.97;;
12715;SDS011;6422;49.938;9.124;2023-11-21T07:18:08;3.20;;;1.10;;
12715;SDS011;6422;49.938;9.124;2023-11-21T07:20:33;1.37;;;0.97;;
12715;SDS011;6422;49.938;9.124;2023-11-21T07:22:58;3.20;;;1.67;;
12715;SDS011;6422;49.938;9.124;2023-11-21T07:25:24;3.97;;;2.67;;
12715;SDS011;6422;49.938;9.124;2023-11-21T07:27:50;4.10;;;2.30;;
12715;SDS011;6422;49.938;9.124;2023-11-21T07:30:15;6.43;;;1.90;;
12715;SDS011;6422;49.938;9.124;2023-11-21T07:32:40;2.80;;;1.40;;
12715;SDS011;6422;49.938;9.124;2023-11-21T07:35:06;4.20;;;1.90;;
12715;SDS011;6422;49.938;9.124;2023-11-21T07:37:33;3.10;;;1.90;;
12715;SDS011;6422;49.938;9.124;2023-11-21T07:39:58;2.23;;;1.23;;
12715;SDS011;6422;49.938;9.124;2023-11-21T07:42:23;1.77;;;1.50;;
12715;SDS011;6422;49.938;9.124;2023-11-21T07:44:51;2.10;;;1.20;;
12715;SDS011;6422;49.938;9.124;2023-11-21T07:47:17;2.00;;;1.10;;
12715;SDS011;6422;49.938;9.124;2023-11-21T07:49:42;1.60;;;1.10;;
12715;SDS011;6422;49.938;9.124;2023-11-21T07:52:09;4.03;;;1.57;;
12715;SDS011;6422;49.938;9.124;2023-11-21T07:54:34;1.70;;;1.23;;
12715;SDS011;6422;49.938;9.124;2023-11-21T07:57:01;2.23;;;1.37;;
12715;SDS011;6422;49.938;9.124;2023-11-21T07:59:26;1.40;;;1.13;;
12715;SDS011;6422;49.938;9.124;2023-11-21T08:01:51;3.20;;;1.30;;
12715;SDS011;6422;49.938;9.124;2023-11-21T08:04:16;1.80;;;1.20;;
12715;SDS011;6422;49.938;9.124;2023-11-21T08:06:42;5.63;;;1.77;;
12715;SDS011;6422;49.938;9.124;2023-11-21T08:09:07;1.30;;;1.10;;
12715;SDS011;6422;49.938;9.124;2023-11-21T08:11:33;3.43;;;1.30;;
12715;SDS011;6422;49.938;9.124;2023-11-21T08:13:58;3.13;;;2.13;;
12715;SDS011;6422;49.938;9.124;2023-11-21T08:16:24;9.83;;;1.67;;
12715;SDS011;6422;49.938;9.124;2023-11-21T08:18:49;7.63;;;1.83;;
12715;SDS011;6422;49.938;9.124;2023-11-21T08:21:14;4.47;;;1.83;;
12715;SDS011;6422;49.938;9.124;2023-11-21T08:23:39;3.97;;;2.80;;
12715;SDS011;6422;49.938;9.124;2023-11-21T08:26:04;8.50;;;2.20;;
12715;SDS011;6422;49.938;9.124;2023-11-21T08:28:30;3.90;;;1.50;;
12715;SDS011;6422;49.938;9.124;2023-11-21T08:30:55;2.27;;;1.43;;
12715;SDS011;6422;49.938;9.124;2023-11-21T08:33:20;2.73;;;1.63;;
12715;SDS011;6422;49.938;9.124;2023-11-21T08:35:45;2.13;;;1.33;;
12715;SDS011;6422;49.938;9.124;2023-11-21T08:38:11;15.67;;;2.90;;
12715;SDS011;6422;49.938;9.124;2023-11-21T08:40:37;13.37;;;2.40;;
12715;SDS011;6422;49.938;9.124;2023-11-21T08:43:02;9.63;;;3.00;;
12715;SDS011;6422;49.938;9.124;2023-11-21T08:45:29;2.63;;;1.93;;
12715;SDS011;6422;49.938;9.124;2023-11-21T08:47:54;4.73;;;1.33;;
12715;SDS011;6422;49.938;9.124;2023-11-21T08:50:19;5.97;;;1.87;;
12715;SDS011;6422;49.938;9.124;2023-11-21T08:52:45;6.80;;;2.60;;
12715;SDS011;6422;49.938;9.124;2023-11-21T08:55:13;1.83;;;1.13;;
12715;SDS011;6422;49.938;9.124;2023-11-21T08:57:38;4.07;;;1.93;;
12715;SDS011;6422;49.938;9.124;2023-11-21T09:00:05;2.70;;;1.60;;
12715;SDS011;6422;49.938;9.124;2023-11-21T09:02:40;1.90;;;1.30;;
12715;SDS011;6422;49.938;9.124;2023-11-21T09:05:08;1.13;;;0.73;;
12715;SDS011;6422;49.938;9.124;2023-11-21T09:07:34;1.93;;;1.30;;
12715;SDS011;6422;49.938;9.124;2023-11-21T09:09:59;1.40;;;1.00;;
12715;SDS011;6422;49.938;9.124;2023-11-21T09:12:24;2.53;;;1.37;;
12715;SDS011;6422;49.938;9.124;2023-11-21T09:14:50;6.07;;;1.87;;
12715;SDS011;6422;49.938;9.124;2023-11-21T09:17:15;1.63;;;1.33;;
12715;SDS011;6422;49.938;9.124;2023-11-21T09:19:41;1.33;;;0.93;;
12715;SDS011;6422;49.938;9.124;2023-11-21T09:22:06;9.53;;;1.90;;
12715;SDS011;6422;49.938;9.124;2023-11-21T09:24:32;2.30;;;1.37;;
12715;SDS011;6422;49.938;9.124;2023-11-21T09:26:57;1.60;;;1.00;;
12715;SDS011;6422;49.938;9.124;2023-11-21T09:29:22;5.67;;;1.57;;
12715;SDS011;6422;49.938;9.124;2023-11-21T09:31:48;3.40;;;1.70;;
12715;SDS011;6422;49.938;9.124;2023-11-21T09:34:13;1.20;;;0.90;;
12715;SDS011;6422;49.938;9.124;2023-11-21T09:36:39;1.50;;;1.00;;
12715;SDS011;6422;49.938;9.124;2023-11-21T09:39:05;1.77;;;1.30;;
12715;SDS011;6422;49.938;9.124;2023-11-21T09:41:49;1.40;;;0.90;;
12715;SDS011;6422;49.938;9.124;2023-11-21T09:44:18;6.10;;;1.00;;
12715;SDS011;6422;49.938;9.124;2023-11-21T09:46:43;2.13;;;0.90;;
12715;SDS011;6422;49.938;9.124;2023-11-21T09:49:09;1.20;;;0.80;;
12715;SDS011;6422;49.938;9.124;2023-11-21T09:51:37;1.07;;;0.70;;
12715;SDS011;6422;49.938;9.124;2023-11-21T09:54:05;1.80;;;1.23;;
12715;SDS011;6422;49.938;9.124;2023-11-21T09:56:34;1.90;;;1.17;;
12715;SDS011;6422;49.938;9.124;2023-11-21T09:58:59;1.90;;;0.70;;
12715;SDS011;6422;49.938;9.124;2023-11-21T10:01:29;1.30;;;0.80;;
12715;SDS011;6422;49.938;9.124;2023-11-21T10:03:55;3.67;;;1.00;;
12715;SDS011;6422;49.938;9.124;2023-11-21T10:06:22;1.20;;;0.80;;
12715;SDS011;6422;49.938;9.124;2023-11-21T10:08:48;1.30;;;0.63;;
12715;SDS011;6422;49.938;9.124;2023-11-21T10:11:15;1.30;;;1.00;;
12715;SDS011;6422;49.938;9.124;2023-11-21T10:13:43;1.57;;;1.17;;
12715;SDS011;6422;49.938;9.124;2023-11-21T10:16:08;2.57;;;1.40;;
12715;SDS011;6422;49.938;9.124;2023-11-21T10:18:36;1.47;;;1.10;;
12715;SDS011;6422;49.938;9.124;2023-11-21T10:21:04;2.70;;;1.57;;
12715;SDS011;6422;49.938;9.124;2023-11-21T10:23:31;3.57;;;1.00;;
12715;SDS011;6422;49.938;9.124;2023-11-21T10:25:56;1.43;;;1.10;;
12715;SDS011;6422;49.938;9.124;2023-11-21T10:28:24;3.80;;;1.40;;
12715;SDS011;6422;49.938;9.124;2023-11-21T10:30:49;2.13;;;1.17;;
12715;SDS011;6422;49.938;9.124;2023-11-21T10:33:14;1.00;;;0.80;;
12715;SDS011;6422;49.938;9.124;2023-11-21T10:35:42;2.20;;;1.10;;
12715;SDS011;6422;49.938;9.124;2023-11-21T10:38:07;1.50;;;1.00;;
12715;SDS011;6422;49.938;9.124;2023-11-21T10:40:38;2.40;;;1.07;;
12715;SDS011;6422;49.938;9.124;2023-11-21T10:43:07;1.60;;;0.90;;
12715;SDS011;6422;49.938;9.124;2023-11-21T10:45:38;1.20;;;0.80;;
12715;SDS011;6422;49.938;9.124;2023-11-21T10:48:10;2.13;;;1.23;;
12715;SDS011;6422;49.938;9.124;2023-11-21T10:50:36;1.50;;;0.93;;
12715;SDS011;6422;49.938;9.124;2023-11-21T10:53:02;1.20;;;0.83;;
12715;SDS011;6422;49.938;9.124;2023-11-21T10:55:27;1.70;;;1.17;;
12715;SDS011;6422;49.938;9.124;2023-11-21T10:57:53;1.97;;;1.00;;
12715;SDS011;6422;49.938;9.124;2023-11-21T11:00:19;1.27;;;0.97;;
12715;SDS011;6422;49.938;9.124;2023-11-21T11:02:53;1.97;;;1.00;;
12715;SDS011;6422;49.938;9.124;2023-11-21T11:05:24;5.13;;;1.70;;
12715;SDS011;6422;49.938;9.124;2023-11-21T11:07:51;1.83;;;0.80;;
12715;SDS011;6422;49.938;9.124;2023-11-21T11:10:20;1.40;;;0.87;;
12715;SDS011;6422;49.938;9.124;2023-11-21T11:12:47;2.60;;;0.80;;
12715;SDS011;6422;49.938;9.124;2023-11-21T11:15:13;4.73;;;1.50;;
12715;SDS011;6422;49.938;9.124;2023-11-21T11:17:39;1.37;;;0.90;;
12715;SDS011;6422;49.938;9.124;2023-11-21T11:20:05;3.50;;;1.67;;
12715;SDS011;6422;49.938;9.124;2023-11-21T11:22:41;3.57;;;0.90;;
12715;SDS011;6422;49.938;9.124;2023-11-21T11:32:53;2.07;;;1.33;;
12715;SDS011;6422;49.938;9.124;2023-11-21T11:35:25;3.60;;;1.53;;
12715;SDS011;6422;49.938;9.124;2023-11-21T11:37:51;2.03;;;1.27;;
12715;SDS011;6422;49.938;9.124;2023-11-21T11:40:17;3.10;;;1.30;;
12715;SDS011;6422;49.938;9.124;2023-11-21T11:42:57;1.70;;;0.80;;
12715;SDS011;6422;49.938;9.124;2023-11-21T11:45:23;2.60;;;1.27;;
12715;SDS011;6422;49.938;9.124;2023-11-21T11:47:56;2.50;;;0.97;;
12715;SDS011;6422;49.938;9.124;2023-11-21T11:50:21;12.83;;;1.73;;
12715;SDS011;6422;49.938;9.124;2023-11-21T11:52:48;3.40;;;0.98;;
12715;SDS011;6422;49.938;9.124;2023-11-21T11:55:14;1.20;;;0.70;;
12715;SDS011;6422;49.938;9.124;2023-11-21T11:57:43;3.20;;;1.27;;
12715;SDS011;6422;49.938;9.124;2023-11-21T12:00:13;6.73;;;2.17;;
12715;SDS011;6422;49.938;9.124;2023-11-21T12:02:42;8.63;;;3.90;;
12715;SDS011;6422;49.938;9.124;2023-11-21T12:05:12;5.37;;;2.13;;
12715;SDS011;6422;49.938;9.124;2023-11-21T12:10:10;2.00;;;0.80;;
12715;SDS011;6422;49.938;9.124;2023-11-21T12:12:36;2.47;;;1.37;;
12715;SDS011;6422;49.938;9.124;2023-11-21T12:15:02;1.90;;;1.03;;
12715;SDS011;6422;49.938;9.124;2023-11-21T12:17:28;1.20;;;0.70;;
12715;SDS011;6422;49.938;9.124;2023-11-21T12:19:55;2.60;;;1.00;;
12715;SDS011;6422;49.938;9.124;2023-11-21T12:22:26;1.70;;;1.03;;
12715;SDS011;6422;49.938;9.124;2023-11-21T12:24:51;1.90;;;1.07;;
12715;SDS011;6422;49.938;9.124;2023-11-21T12:27:16;5.00;;;1.03;;
12715;SDS011;6422;49.938;9.124;2023-11-21T12:29:42;8.10;;;1.57;;
12715;SDS011;6422;49.938;9.124;2023-11-21T12:32:07;5.90;;;1.20;;
12715;SDS011;6422;49.938;9.124;2023-11-21T12:34:32;2.37;;;1.30;;
12715;SDS011;6422;49.938;9.124;2023-11-21T12:36:58;2.70;;;1.53;;
12715;SDS011;6422;49.938;9.124;2023-11-21T12:39:24;2.40;;;0.83;;
12715;SDS011;6422;49.938;9.124;2023-11-21T12:41:50;1.20;;;0.90;;
12715;SDS011;6422;49.938;9.124;2023-11-21T12:44:16;17.07;;;1.37;;
12715;SDS011;6422;49.938;9.124;2023-11-21T12:46:44;1.20;;;0.80;;
12715;SDS011;6422;49.938;9.124;2023-11-21T12:49:10;1.47;;;0.90;;
12715;SDS011;6422;49.938;9.124;2023-11-21T12:51:42;3.73;;;1.33;;
12715;SDS011;6422;49.938;9.124;2023-11-21T12:54:07;8.43;;;0.73;;
12715;SDS011;6422;49.938;9.124;2023-11-21T12:56:37;3.80;;;1.70;;
12715;SDS011;6422;49.938;9.124;2023-11-21T12:59:03;3.13;;;0.97;;
12715;SDS011;6422;49.938;9.124;2023-11-21T13:01:29;1.23;;;0.90;;
12715;SDS011;6422;49.938;9.124;2023-11-21T13:03:57;1.77;;;1.10;;
12715;SDS011;6422;49.938;9.124;2023-11-21T13:06:22;1.33;;;0.80;;
12715;SDS011;6422;49.938;9.124;2023-11-21T13:08:50;6.35;;;1.00;;
12715;SDS011;6422;49.938;9.124;2023-11-21T13:11:15;2.90;;;0.90;;
12715;SDS011;6422;49.938;9.124;2023-11-21T13:13:42;1.48;;;0.93;;
12715;SDS011;6422;49.938;9.124;2023-11-21T13:16:08;1.40;;;0.93;;
12715;SDS011;6422;49.938;9.124;2023-11-21T13:18:34;1.97;;;1.47;;
12715;SDS011;6422;49.938;9.124;2023-11-21T13:21:03;2.97;;;1.10;;
12715;SDS011;6422;49.938;9.124;2023-11-21T13:23:38;3.50;;;1.10;;
12715;SDS011;6422;49.938;9.124;2023-11-21T13:26:03;3.17;;;1.57;;
12715;SDS011;6422;49.938;9.124;2023-11-21T13:28:29;1.43;;;1.20;;
12715;SDS011;6422;49.938;9.124;2023-11-21T13:30:58;2.78;;;1.10;;
12715;SDS011;6422;49.938;9.124;2023-11-21T13:33:27;3.00;;;1.13;;
12715;SDS011;6422;49.938;9.124;2023-11-21T13:35:53;3.17;;;1.47;;
12715;SDS011;6422;49.938;9.124;2023-11-21T13:38:20;6.33;;;1.73;;
12715;SDS011;6422;49.938;9.124;2023-11-21T13:40:49;3.53;;;1.87;;
12715;SDS011;6422;49.938;9.124;2023-11-21T13:43:15;2.07;;;0.97;;
12715;SDS011;6422;49.938;9.124;2023-11-21T13:45:42;1.77;;;1.20;;
12715;SDS011;6422;49.938;9.124;2023-11-21T13:48:08;12.73;;;2.17;;
12715;SDS011;6422;49.938;9.124;2023-11-21T13:50:42;3.23;;;1.30;;
12715;SDS011;6422;49.938;9.124;2023-11-21T13:53:13;4.03;;;1.47;;
12715;SDS011;6422;49.938;9.124;2023-11-21T13:55:48;2.20;;;1.40;;
12715;SDS011;6422;49.938;9.124;2023-11-21T13:58:14;3.33;;;1.57;;
12715;SDS011;6422;49.938;9.124;2023-11-21T14:00:44;6.10;;;1.50;;
12715;SDS011;6422;49.938;9.124;2023-11-21T14:03:11;7.73;;;1.57;;
12715;SDS011;6422;49.938;9.124;2023-11-21T14:05:44;2.87;;;1.70;;
12715;SDS011;6422;49.938;9.124;2023-11-21T14:08:11;1.67;;;1.27;;
12715;SDS011;6422;49.938;9.124;2023-11-21T14:10:41;4.17;;;2.50;;
12715;SDS011;6422;49.938;9.124;2023-11-21T14:13:08;9.23;;;2.20;;
12715;SDS011;6422;49.938;9.124;2023-11-21T14:15:35;2.30;;;1.93;;
12715;SDS011;6422;49.938;9.124;2023-11-21T14:18:03;9.07;;;3.57;;
12715;SDS011;6422;49.938;9.124;2023-11-21T14:20:32;4.53;;;2.63;;
12715;SDS011;6422;49.938;9.124;2023-11-21T14:22:58;19.43;;;4.60;;
12715;SDS011;6422;49.938;9.124;2023-11-21T14:25:23;6.97;;;3.60;;
12715;SDS011;6422;49.938;9.124;2023-11-21T14:27:49;11.60;;;5.23;;
12715;SDS011;6422;49.938;9.124;2023-11-21T14:30:14;5.90;;;2.33;;
12715;SDS011;6422;49.938;9.124;2023-11-21T14:32:43;4.13;;;1.67;;
12715;SDS011;6422;49.938;9.124;2023-11-21T14:35:08;3.53;;;1.60;;
12715;SDS011;6422;49.938;9.124;2023-11-21T14:37:34;11.87;;;3.10;;
12715;SDS011;6422;49.938;9.124;2023-11-21T14:39:59;2.13;;;1.33;;
12715;SDS011;6422;49.938;9.124;2023-11-21T14:42:24;3.17;;;2.07;;
12715;SDS011;6422;49.938;9.124;2023-11-21T14:44:54;16.33;;;2.33;;
12715;SDS011;6422;49.938;9.124;2023-11-21T14:47:25;9.93;;;2.10;;
12715;SDS011;6422;49.938;9.124;2023-11-21T14:49:52;7.23;;;3.63;;
12715;SDS011;6422;49.938;9.124;2023-11-21T14:52:18;4.10;;;1.13;;
12715;SDS011;6422;49.938;9.124;2023-11-21T14:54:59;3.20;;;1.50;;
12715;SDS011;6422;49.938;9.124;2023-11-21T14:57:43;9.90;;;1.20;;
12715;SDS011;6422;49.938;9.124;2023-11-21T15:00:17;2.57;;;1.40;;
12715;SDS011;6422;49.938;9.124;2023-11-21T15:03:04;2.63;;;1.53;;
12715;SDS011;6422;49.938;9.124;2023-11-21T15:05:30;3.00;;;1.40;;